Time;durP1;ratioP1;P1;durP2;ratioP2;P2;SDS_P1;SDS_P2;PMS_P1;PMS_P2;Temp;Humidity;BMP_temperature;BMP_pressure;BME280_temperature;BME280_humidity;BME280_pressure;Samples;Min_cycle;Max_cycle;Signal;HPM_P1;HPM_P2
2021/07/24 00:01:51;;;;;;;13.50;6.15;;;;;;;;;;5095277;28;20024;-51
2021/07/24 00:04:17;;;;;;;16.50;5.95;;;;;;;;;;5093703;28;20020;-51
2021/07/24 00:06:43;;;;;;;10.25;5.57;;;;;;;;;;5096081;28;20402;-52
2021/07/24 00:09:09;;;;;;;16.92;6.45;;;;;;;;;;5096128;28;20024;-51
2021/07/24 00:11:35;;;;;;;11.32;5.95;;;;;;;;;;5094821;28;20066;-51
2021/07/24 00:14:02;;;;;;;13.98;5.80;;;;;;;;;;5093404;28;20024;-51
2021/07/24 00:16:28;;;;;;;12.45;6.05;;;;;;;;;;5096104;28;20028;-51
2021/07/24 00:18:54;;;;;;;13.13;5.57;;;;;;;;;;5096057;28;20020;-51
2021/07/24 00:21:20;;;;;;;11.90;6.35;;;;;;;;;;5094315;28;20028;-51
2021/07/24 00:23:46;;;;;;;17.73;6.35;;;;;;;;;;5096212;28;20313;-51
2021/07/24 00:26:12;;;;;;;11.57;5.55;;;;;;;;;;5095853;28;20024;-51
2021/07/24 00:28:39;;;;;;;12.07;5.43;;;;;;;;;;5095633;28;20616;-51
2021/07/24 00:31:05;;;;;;;10.23;5.47;;;;;;;;;;5094069;28;20372;-51
2021/07/24 00:33:31;;;;;;;12.15;6.20;;;;;;;;;;5094696;28;20016;-51
2021/07/24 00:35:57;;;;;;;12.40;6.18;;;;;;;;;;5095312;28;20034;-51
2021/07/24 00:38:25;;;;;;;16.05;7.30;;;;;;;;;;5095482;28;20103;-51
2021/07/24 00:40:55;;;;;;;13.93;5.65;;;;;;;;;;5094221;28;20039;-51
2021/07/24 00:43:25;;;;;;;11.65;5.90;;;;;;;;;;5095405;28;20050;-51
2021/07/24 00:45:53;;;;;;;9.30;5.05;;;;;;;;;;5095241;28;20044;-51
2021/07/24 00:48:20;;;;;;;11.23;5.97;;;;;;;;;;5095656;28;20085;-51
2021/07/24 00:50:47;;;;;;;21.25;6.55;;;;;;;;;;5093958;28;20061;-51
2021/07/24 00:53:20;;;;;;;11.95;6.03;;;;;;;;;;5095427;28;20027;-51
2021/07/24 00:55:46;;;;;;;11.05;6.10;;;;;;;;;;5095108;28;20369;-51
2021/07/24 00:58:29;;;;;;;11.10;6.32;;;;;;;;;;5095063;28;20111;-51
2021/07/24 01:00:55;;;;;;;13.13;5.65;;;;;;;;;;5094156;28;20042;-51
2021/07/24 01:03:22;;;;;;;12.18;5.40;;;;;;;;;;5094866;28;20023;-51
2021/07/24 01:05:50;;;;;;;11.90;6.40;;;;;;;;;;5094597;28;20031;-51
2021/07/24 01:08:16;;;;;;;15.38;6.05;;;;;;;;;;5095327;28;20020;-51
2021/07/24 01:10:42;;;;;;;17.75;6.38;;;;;;;;;;5093787;28;20036;-51
2021/07/24 01:13:08;;;;;;;11.95;5.93;;;;;;;;;;5095085;28;20016;-51
2021/07/24 01:15:34;;;;;;;15.55;5.97;;;;;;;;;;5094942;28;20024;-51
2021/07/24 01:18:00;;;;;;;12.45;6.05;;;;;;;;;;5094629;28;20012;-51
2021/07/24 01:20:26;;;;;;;11.45;5.80;;;;;;;;;;5093847;28;20032;-51
2021/07/24 01:22:53;;;;;;;10.75;5.93;;;;;;;;;;5093834;28;20032;-50
2021/07/24 01:25:19;;;;;;;13.00;6.85;;;;;;;;;;5094289;28;20035;-51
2021/07/24 01:27:45;;;;;;;16.77;6.47;;;;;;;;;;5094847;28;20008;-51
2021/07/24 01:30:12;;;;;;;10.55;5.55;;;;;;;;;;5094146;28;20040;-51
2021/07/24 01:32:38;;;;;;;12.60;6.65;;;;;;;;;;5093469;28;20017;-51
2021/07/24 01:35:04;;;;;;;11.02;6.30;;;;;;;;;;5093655;28;20043;-51
2021/07/24 01:37:30;;;;;;;16.58;6.72;;;;;;;;;;5094143;28;20020;-51
2021/07/24 01:39:56;;;;;;;10.57;6.28;;;;;;;;;;5093975;28;20039;-51
2021/07/24 01:42:22;;;;;;;19.13;7.05;;;;;;;;;;5083206;28;20436;-51
2021/07/24 01:44:48;;;;;;;13.00;6.97;;;;;;;;;;5073536;28;20052;-51
2021/07/24 01:47:14;;;;;;;16.48;7.30;;;;;;;;;;5073816;28;20020;-50
2021/07/24 01:52:48;;;;;;;18.40;7.95;;;;;;;;;;5073243;28;20492;-51
2021/07/24 01:55:24;;;;;;;27.42;8.65;;;;;;;;;;5073952;28;20357;-50
2021/07/24 01:57:50;;;;;;;13.98;6.85;;;;;;;;;;5073401;28;20070;-51
2021/07/24 02:00:16;;;;;;;16.35;7.60;;;;;;;;;;5073705;28;20028;-51
2021/07/24 02:02:44;;;;;;;12.10;6.20;;;;;;;;;;5072901;28;20028;-51
2021/07/24 02:05:14;;;;;;;16.25;6.60;;;;;;;;;;5073341;28;20020;-51
2021/07/24 02:07:44;;;;;;;10.70;5.78;;;;;;;;;;5073600;28;20024;-51
2021/07/24 02:10:10;;;;;;;11.75;5.90;;;;;;;;;;5073167;28;20040;-51
2021/07/24 02:12:37;;;;;;;13.30;6.00;;;;;;;;;;5072236;28;20029;-51
2021/07/24 02:15:03;;;;;;;18.27;7.00;;;;;;;;;;5068243;28;20115;-51
2021/07/24 02:17:31;;;;;;;17.02;6.90;;;;;;;;;;5073378;28;20434;-51
2021/07/24 02:19:58;;;;;;;12.68;6.28;;;;;;;;;;5073351;28;20051;-51
2021/07/24 02:22:24;;;;;;;13.93;6.28;;;;;;;;;;5071999;28;20029;-51
2021/07/24 02:24:50;;;;;;;19.05;6.15;;;;;;;;;;5072892;28;20265;-51
2021/07/24 02:27:16;;;;;;;11.90;6.47;;;;;;;;;;5073150;28;20028;-51
2021/07/24 02:29:42;;;;;;;10.98;6.43;;;;;;;;;;5072900;28;20024;-51
2021/07/24 02:32:08;;;;;;;14.10;6.45;;;;;;;;;;5072548;28;20024;-51
2021/07/24 02:34:34;;;;;;;11.63;5.95;;;;;;;;;;5073101;28;20028;-51
2021/07/24 02:37:00;;;;;;;14.73;7.50;;;;;;;;;;5072823;28;20376;-51
2021/07/24 02:39:26;;;;;;;22.45;7.07;;;;;;;;;;5072804;28;20066;-50
2021/07/24 02:41:52;;;;;;;16.70;7.38;;;;;;;;;;5071892;28;20020;-51
2021/07/24 02:44:18;;;;;;;20.90;6.97;;;;;;;;;;5072677;28;20059;-51
2021/07/24 02:46:44;;;;;;;12.85;7.15;;;;;;;;;;5073018;28;20035;-51
2021/07/24 02:49:12;;;;;;;21.80;7.50;;;;;;;;;;5072895;28;20438;-51
2021/07/24 02:51:37;;;;;;;14.45;6.45;;;;;;;;;;5071918;28;20032;-51
2021/07/24 02:54:04;;;;;;;10.93;6.00;;;;;;;;;;5072539;28;20399;-51
2021/07/24 02:56:29;;;;;;;12.15;6.20;;;;;;;;;;5072340;28;20025;-51
2021/07/24 02:58:55;;;;;;;15.45;6.65;;;;;;;;;;5072919;28;20450;-51
2021/07/24 03:01:22;;;;;;;14.48;7.05;;;;;;;;;;5071907;28;20024;-51
2021/07/24 03:03:48;;;;;;;12.68;6.18;;;;;;;;;;5072671;28;20017;-51
2021/07/24 03:06:14;;;;;;;19.00;6.65;;;;;;;;;;5072490;28;20399;-51
2021/07/24 03:08:40;;;;;;;16.30;6.25;;;;;;;;;;5072579;28;20031;-51
2021/07/24 03:11:06;;;;;;;13.98;5.93;;;;;;;;;;5071809;28;20032;-51
2021/07/24 03:13:32;;;;;;;11.93;6.45;;;;;;;;;;5072771;28;20032;-51
2021/07/24 03:15:58;;;;;;;18.35;5.97;;;;;;;;;;5072808;28;20028;-51
2021/07/24 03:18:23;;;;;;;18.42;7.40;;;;;;;;;;5072531;28;20093;-50
2021/07/24 03:20:49;;;;;;;12.70;6.47;;;;;;;;;;5071687;28;20048;-51
2021/07/24 03:23:15;;;;;;;18.75;6.65;;;;;;;;;;5072526;28;20433;-51
2021/07/24 03:25:42;;;;;;;18.27;7.05;;;;;;;;;;5068611;28;20041;-51
2021/07/24 03:28:08;;;;;;;14.57;7.03;;;;;;;;;;5074899;28;20422;-50
2021/07/24 03:30:34;;;;;;;15.82;7.50;;;;;;;;;;5071817;28;20123;-52
2021/07/24 03:33:00;;;;;;;19.13;7.47;;;;;;;;;;5090262;28;20050;-51
2021/07/24 03:35:26;;;;;;;17.60;8.55;;;;;;;;;;5092106;28;20028;-50
2021/07/24 03:37:52;;;;;;;17.67;7.00;;;;;;;;;;5092275;28;20430;-51
2021/07/24 03:40:20;;;;;;;12.35;6.93;;;;;;;;;;5092091;28;20089;-51
2021/07/24 03:42:46;;;;;;;20.92;6.55;;;;;;;;;;5091969;28;20028;-51
2021/07/24 03:45:12;;;;;;;16.63;6.50;;;;;;;;;;5074152;28;20029;-51
2021/07/24 03:47:38;;;;;;;15.45;7.07;;;;;;;;;;5072312;28;20025;-51
2021/07/24 03:50:04;;;;;;;15.02;5.90;;;;;;;;;;5072359;28;20410;-51
2021/07/24 03:52:30;;;;;;;21.77;6.78;;;;;;;;;;5071551;28;20016;-51
2021/07/24 03:54:57;;;;;;;16.80;7.50;;;;;;;;;;5071108;28;20036;-50
2021/07/24 03:57:23;;;;;;;19.13;7.15;;;;;;;;;;5072257;28;20404;-51
2021/07/24 03:59:49;;;;;;;15.13;7.82;;;;;;;;;;5072363;28;20103;-51
2021/07/24 04:02:19;;;;;;;13.63;6.72;;;;;;;;;;5071547;28;20028;-50
2021/07/24 04:04:47;;;;;;;15.23;7.15;;;;;;;;;;5071955;28;20020;-51
2021/07/24 04:07:13;;;;;;;16.02;7.82;;;;;;;;;;5074507;28;20111;-51
2021/07/24 04:09:39;;;;;;;19.45;7.90;;;;;;;;;;5074885;28;20404;-50
2021/07/24 04:12:06;;;;;;;14.48;6.07;;;;;;;;;;5076053;28;20042;-51
2021/07/24 04:14:33;;;;;;;15.35;7.03;;;;;;;;;;5084374;28;20414;-51
2021/07/24 04:16:59;;;;;;;17.92;7.43;;;;;;;;;;5075640;28;20047;-51
2021/07/24 04:19:25;;;;;;;16.65;7.63;;;;;;;;;;5089791;28;20103;-50
2021/07/24 04:21:51;;;;;;;15.73;7.57;;;;;;;;;;5094908;28;20452;-51
2021/07/24 04:24:18;;;;;;;20.60;6.53;;;;;;;;;;5095265;28;20047;-51
2021/07/24 04:26:44;;;;;;;15.73;6.47;;;;;;;;;;5095448;28;20077;-51
2021/07/24 04:29:10;;;;;;;13.20;6.05;;;;;;;;;;5094984;28;20020;-51
2021/07/24 04:31:37;;;;;;;14.20;6.38;;;;;;;;;;5093953;28;20028;-51
2021/07/24 04:34:03;;;;;;;16.95;6.07;;;;;;;;;;5092194;28;20047;-51
2021/07/24 04:36:29;;;;;;;13.65;6.00;;;;;;;;;;5095096;28;20501;-51
2021/07/24 04:38:55;;;;;;;14.55;5.70;;;;;;;;;;5091694;28;20032;-51
2021/07/24 04:41:21;;;;;;;11.30;6.10;;;;;;;;;;5094479;28;20100;-51
2021/07/24 04:43:48;;;;;;;13.90;6.72;;;;;;;;;;5091849;28;20055;-51
2021/07/24 04:46:14;;;;;;;14.98;7.65;;;;;;;;;;5095555;28;20027;-51
2021/07/24 04:48:40;;;;;;;16.05;6.88;;;;;;;;;;5094726;28;20100;-51
2021/07/24 04:51:06;;;;;;;16.92;7.15;;;;;;;;;;5093600;28;20035;-51
2021/07/24 04:53:33;;;;;;;10.98;5.47;;;;;;;;;;5092836;28;20020;-50
2021/07/24 04:56:01;;;;;;;17.17;6.72;;;;;;;;;;5094100;28;20066;-51
2021/07/24 04:58:27;;;;;;;16.08;6.60;;;;;;;;;;5095152;28;20035;-51
2021/07/24 05:00:53;;;;;;;12.10;6.22;;;;;;;;;;5093978;28;20099;-51
2021/07/24 05:03:19;;;;;;;13.80;6.55;;;;;;;;;;5095056;28;20193;-51
2021/07/24 05:05:45;;;;;;;10.90;6.05;;;;;;;;;;5080117;28;20078;-51
2021/07/24 05:08:12;;;;;;;12.38;6.25;;;;;;;;;;5074774;28;20124;-51
2021/07/24 05:10:38;;;;;;;16.15;6.50;;;;;;;;;;5073332;28;20389;-51
2021/07/24 05:13:04;;;;;;;16.50;6.65;;;;;;;;;;5074603;28;20021;-51
2021/07/24 05:15:30;;;;;;;16.65;6.38;;;;;;;;;;5074466;28;20020;-51
2021/07/24 05:17:56;;;;;;;14.02;7.07;;;;;;;;;;5073469;28;20113;-51
2021/07/24 05:20:24;;;;;;;14.60;6.10;;;;;;;;;;5073721;28;20507;-51
2021/07/24 05:22:51;;;;;;;18.60;6.97;;;;;;;;;;5073963;28;20044;-51
2021/07/24 05:25:17;;;;;;;14.63;7.63;;;;;;;;;;5074205;28;20119;-50
2021/07/24 05:27:43;;;;;;;16.55;7.28;;;;;;;;;;5074092;28;20415;-51
2021/07/24 05:30:09;;;;;;;15.10;6.85;;;;;;;;;;5074418;28;20052;-51
2021/07/24 05:32:37;;;;;;;18.48;7.13;;;;;;;;;;5073030;28;20090;-51
2021/07/24 05:35:03;;;;;;;17.75;7.65;;;;;;;;;;5073746;28;20020;-51
2021/07/24 05:37:29;;;;;;;16.85;8.13;;;;;;;;;;5074171;28;20028;-51
2021/07/24 05:39:55;;;;;;;14.25;6.80;;;;;;;;;;5074131;28;20079;-51
2021/07/24 05:42:21;;;;;;;17.13;6.82;;;;;;;;;;5073010;28;20408;-51
2021/07/24 05:44:47;;;;;;;13.68;6.50;;;;;;;;;;5073725;28;20028;-51
2021/07/24 05:47:13;;;;;;;13.90;6.90;;;;;;;;;;5073834;28;20017;-51
2021/07/24 05:49:39;;;;;;;11.60;6.40;;;;;;;;;;5079024;28;20327;-51
2021/07/24 05:52:11;;;;;;;15.50;7.00;;;;;;;;;;5081088;28;20104;-51
2021/07/24 05:54:37;;;;;;;15.27;6.70;;;;;;;;;;5083482;28;20016;-51
2021/07/24 05:57:04;;;;;;;15.50;6.45;;;;;;;;;;5083639;28;20020;-51
2021/07/24 05:59:31;;;;;;;13.57;8.80;;;;;;;;;;5085704;28;20032;-51
2021/07/24 06:01:57;;;;;;;17.15;6.55;;;;;;;;;;5075239;28;20453;-51
2021/07/24 06:04:23;;;;;;;16.17;8.75;;;;;;;;;;5073482;28;21837;-51
2021/07/24 06:06:49;;;;;;;16.48;7.72;;;;;;;;;;5073232;28;20074;-51
2021/07/24 06:09:15;;;;;;;15.70;7.18;;;;;;;;;;5083747;28;20032;-51
2021/07/24 06:11:41;;;;;;;15.80;7.13;;;;;;;;;;5072523;28;20037;-51
2021/07/24 06:14:07;;;;;;;12.93;6.85;;;;;;;;;;5073336;28;20457;-52
2021/07/24 06:16:33;;;;;;;18.15;7.78;;;;;;;;;;5073040;28;20028;-51
2021/07/24 06:19:02;;;;;;;15.13;7.15;;;;;;;;;;5073472;28;20094;-51
2021/07/24 06:21:28;;;;;;;15.90;6.03;;;;;;;;;;5072255;28;20036;-51
2021/07/24 06:23:54;;;;;;;14.80;7.20;;;;;;;;;;5076691;28;20016;-51
2021/07/24 06:26:20;;;;;;;13.73;6.88;;;;;;;;;;5093081;28;20085;-51
2021/07/24 06:28:46;;;;;;;12.85;6.75;;;;;;;;;;5093259;28;20032;-51
2021/07/24 06:31:12;;;;;;;12.75;6.95;;;;;;;;;;5091157;28;20504;-51
2021/07/24 06:33:38;;;;;;;13.82;6.45;;;;;;;;;;5093199;28;20123;-51
2021/07/24 06:36:04;;;;;;;19.95;6.97;;;;;;;;;;5093107;28;20062;-51
2021/07/24 06:38:30;;;;;;;13.40;7.18;;;;;;;;;;5092989;28;20356;-51
2021/07/24 06:40:57;;;;;;;17.67;7.05;;;;;;;;;;5091746;28;20433;-51
2021/07/24 06:43:23;;;;;;;18.63;7.47;;;;;;;;;;5092449;28;20031;-52
2021/07/24 06:45:49;;;;;;;15.30;8.13;;;;;;;;;;5093115;28;20025;-51
2021/07/24 06:48:15;;;;;;;17.42;7.18;;;;;;;;;;5093174;28;20062;-51
2021/07/24 06:50:41;;;;;;;12.85;6.63;;;;;;;;;;5092418;28;20036;-52
2021/07/24 06:53:07;;;;;;;17.02;7.65;;;;;;;;;;5092251;28;20456;-51
2021/07/24 06:55:33;;;;;;;15.27;6.60;;;;;;;;;;5092449;28;20039;-51
2021/07/24 06:58:03;;;;;;;13.27;6.22;;;;;;;;;;5092706;28;20031;-51
2021/07/24 07:00:29;;;;;;;19.02;6.65;;;;;;;;;;5092860;28;20036;-51
2021/07/24 07:02:59;;;;;;;15.73;6.93;;;;;;;;;;5092497;28;20365;-51
2021/07/24 07:05:26;;;;;;;10.45;6.05;;;;;;;;;;5092610;28;20350;-51
2021/07/24 07:07:52;;;;;;;18.45;7.00;;;;;;;;;;5091734;28;20131;-51
2021/07/24 07:10:19;;;;;;;16.77;6.70;;;;;;;;;;5092773;28;20465;-52
2021/07/24 07:12:45;;;;;;;11.90;6.05;;;;;;;;;;5091722;28;20467;-51
2021/07/24 07:15:11;;;;;;;11.40;6.50;;;;;;;;;;5092410;28;20020;-51
2021/07/24 07:17:37;;;;;;;13.88;6.95;;;;;;;;;;5092730;28;20388;-51
2021/07/24 07:20:06;;;;;;;17.95;8.05;;;;;;;;;;5093081;28;20073;-51
2021/07/24 07:22:32;;;;;;;14.55;7.53;;;;;;;;;;5091781;28;20040;-51
2021/07/24 07:24:58;;;;;;;23.55;8.13;;;;;;;;;;5091524;28;20024;-51
2021/07/24 07:27:24;;;;;;;16.60;7.50;;;;;;;;;;5092201;28;20028;-51
2021/07/24 07:29:50;;;;;;;17.77;8.60;;;;;;;;;;5092452;28;20107;-51
2021/07/24 07:32:17;;;;;;;18.15;8.73;;;;;;;;;;5092116;28;20341;-51
2021/07/24 07:34:43;;;;;;;18.63;9.23;;;;;;;;;;5092510;28;20024;-51
2021/07/24 07:37:09;;;;;;;18.60;8.25;;;;;;;;;;5092551;28;20028;-51
2021/07/24 07:39:35;;;;;;;15.10;7.18;;;;;;;;;;5092923;28;20024;-51
2021/07/24 07:42:01;;;;;;;16.25;8.20;;;;;;;;;;5094142;28;20028;-51
2021/07/24 07:44:28;;;;;;;20.40;8.30;;;;;;;;;;5096400;28;20023;-51
2021/07/24 07:46:54;;;;;;;16.50;8.57;;;;;;;;;;5096606;28;20051;-51
2021/07/24 07:49:20;;;;;;;18.48;8.75;;;;;;;;;;5096364;28;20020;-51
2021/07/24 07:51:46;;;;;;;21.17;8.98;;;;;;;;;;5095373;28;20036;-51
2021/07/24 07:54:12;;;;;;;18.88;8.52;;;;;;;;;;5096352;28;20144;-51
2021/07/24 07:56:38;;;;;;;17.65;7.43;;;;;;;;;;5096713;28;20031;-51
2021/07/24 07:59:04;;;;;;;16.95;7.85;;;;;;;;;;5095702;28;20034;-51
2021/07/24 08:01:30;;;;;;;13.63;7.55;;;;;;;;;;5095214;28;20016;-51
2021/07/24 08:03:56;;;;;;;14.95;7.20;;;;;;;;;;5096174;28;20035;-51
2021/07/24 08:06:22;;;;;;;17.02;7.35;;;;;;;;;;5095865;28;20441;-51
2021/07/24 08:08:48;;;;;;;16.33;8.13;;;;;;;;;;5096481;28;20024;-51
2021/07/24 08:11:15;;;;;;;17.50;8.13;;;;;;;;;;5094888;28;20036;-51
2021/07/24 08:13:41;;;;;;;12.57;6.88;;;;;;;;;;5095566;28;20035;-51
2021/07/24 08:16:16;;;;;;;17.27;7.97;;;;;;;;;;5096146;28;20024;-51
2021/07/24 08:18:43;;;;;;;18.83;7.75;;;;;;;;;;5096104;28;20039;-51
2021/07/24 08:21:09;;;;;;;18.15;7.65;;;;;;;;;;5094873;28;20032;-51
2021/07/24 08:23:35;;;;;;;13.60;7.55;;;;;;;;;;5095814;28;20024;-51
2021/07/24 08:26:01;;;;;;;13.98;7.10;;;;;;;;;;5095260;28;20319;-51
2021/07/24 08:28:28;;;;;;;15.20;7.85;;;;;;;;;;5095790;28;20043;-51
2021/07/24 08:30:54;;;;;;;21.60;7.47;;;;;;;;;;5094532;28;20039;-51
2021/07/24 08:33:20;;;;;;;15.07;7.00;;;;;;;;;;5095794;28;20353;-51
2021/07/24 08:35:46;;;;;;;13.68;7.57;;;;;;;;;;5095062;28;20382;-51
2021/07/24 08:38:12;;;;;;;12.00;6.70;;;;;;;;;;5095792;28;20024;-51
2021/07/24 08:40:39;;;;;;;19.27;8.40;;;;;;;;;;5094489;28;20357;-51
2021/07/24 08:43:05;;;;;;;21.52;8.95;;;;;;;;;;5095537;28;20031;-51
2021/07/24 08:45:32;;;;;;;21.23;8.07;;;;;;;;;;5095602;28;20061;-51
2021/07/24 08:48:01;;;;;;;25.88;9.23;;;;;;;;;;5094947;28;20020;-51
2021/07/24 08:50:27;;;;;;;15.85;7.40;;;;;;;;;;5095129;28;20036;-51
2021/07/24 08:52:53;;;;;;;20.73;8.80;;;;;;;;;;5093113;28;20023;-51
2021/07/24 08:55:21;;;;;;;17.50;8.50;;;;;;;;;;5086469;28;20458;-51
2021/07/24 08:57:48;;;;;;;18.27;8.82;;;;;;;;;;5083520;28;20020;-51
2021/07/24 09:00:18;;;;;;;21.17;8.65;;;;;;;;;;5078338;28;20028;-51
2021/07/24 09:02:45;;;;;;;19.48;8.45;;;;;;;;;;5073991;28;20492;-51
2021/07/24 09:05:12;;;;;;;15.90;8.60;;;;;;;;;;5074584;28;20025;-51
2021/07/24 09:07:44;;;;;;;19.67;8.70;;;;;;;;;;5074511;28;20050;-51
2021/07/24 09:10:11;;;;;;;20.13;10.02;;;;;;;;;;5074254;28;20025;-51
2021/07/24 09:12:40;;;;;;;20.40;8.60;;;;;;;;;;5074160;28;20062;-51
2021/07/24 09:15:09;;;;;;;24.20;9.43;;;;;;;;;;5077392;28;20027;-51
2021/07/24 09:17:35;;;;;;;17.73;7.82;;;;;;;;;;5095267;28;20031;-51
2021/07/24 09:20:02;;;;;;;21.25;10.15;;;;;;;;;;5093458;28;20035;-51
2021/07/24 09:22:29;;;;;;;17.35;8.10;;;;;;;;;;5089940;28;20040;-51
2021/07/24 09:25:08;;;;;;;18.95;8.60;;;;;;;;;;5073668;28;20028;-51
2021/07/24 09:27:34;;;;;;;17.53;7.97;;;;;;;;;;5074005;28;20081;-51
2021/07/24 09:30:04;;;;;;;22.48;8.75;;;;;;;;;;5074038;28;20320;-51
2021/07/24 09:32:30;;;;;;;17.27;7.75;;;;;;;;;;5073093;28;20082;-51
2021/07/24 09:34:56;;;;;;;14.77;8.45;;;;;;;;;;5073808;28;20031;-52
2021/07/24 09:37:29;;;;;;;24.92;9.52;;;;;;;;;;5074342;28;20024;-51
2021/07/24 09:39:56;;;;;;;18.52;8.20;;;;;;;;;;5073745;28;20025;-51
2021/07/24 09:42:22;;;;;;;19.13;7.90;;;;;;;;;;5076801;28;20036;-51
2021/07/24 09:45:04;;;;;;;24.10;9.38;;;;;;;;;;5083257;28;20038;-51
2021/07/24 09:47:30;;;;;;;17.15;7.95;;;;;;;;;;5078830;28;20020;-51
2021/07/24 09:50:09;;;;;;;21.30;9.75;;;;;;;;;;5081824;28;20465;-51
2021/07/24 09:52:49;;;;;;;18.35;9.52;;;;;;;;;;5073576;28;20032;-51
2021/07/24 09:55:25;;;;;;;25.52;10.98;;;;;;;;;;5073403;28;20028;-51
2021/07/24 09:57:57;;;;;;;17.88;9.23;;;;;;;;;;5073582;28;20457;-51
2021/07/24 10:00:23;;;;;;;20.83;10.02;;;;;;;;;;5073889;28;20354;-51
2021/07/24 10:03:04;;;;;;;24.92;10.25;;;;;;;;;;5077932;28;20039;-51
2021/07/24 10:05:33;;;;;;;32.70;10.05;;;;;;;;;;5083951;28;20077;-51
2021/07/24 10:08:02;;;;;;;31.63;11.53;;;;;;;;;;5075979;28;20060;-51
2021/07/24 10:10:28;;;;;;;28.15;10.63;;;;;;;;;;5073023;28;20044;-51
2021/07/24 10:12:54;;;;;;;20.58;10.27;;;;;;;;;;5072804;28;20027;-51
2021/07/24 10:15:21;;;;;;;27.42;11.13;;;;;;;;;;5073111;28;20521;-51
2021/07/24 10:17:48;;;;;;;20.23;10.27;;;;;;;;;;5073276;28;20416;-51
2021/07/24 10:20:16;;;;;;;23.65;9.68;;;;;;;;;;5072893;28;20036;-51
2021/07/24 10:22:42;;;;;;;17.67;8.68;;;;;;;;;;5071834;28;20439;-51
2021/07/24 10:25:08;;;;;;;18.13;9.52;;;;;;;;;;5071439;28;20089;-54
2021/07/24 10:27:35;;;;;;;21.73;9.85;;;;;;;;;;5071292;28;20473;-54
2021/07/24 10:30:03;;;;;;;21.88;10.32;;;;;;;;;;5071483;28;20534;-54
2021/07/24 10:32:31;;;;;;;23.27;10.43;;;;;;;;;;5080364;28;20028;-54
2021/07/24 10:34:58;;;;;;;21.88;10.32;;;;;;;;;;5093463;28;20028;-55
2021/07/24 10:37:30;;;;;;;21.35;9.93;;;;;;;;;;5092880;28;20063;-55
2021/07/24 10:40:27;;;;;;;25.42;10.30;;;;;;;;;;5093126;28;20157;-54
2021/07/24 10:42:54;;;;;;;25.45;10.73;;;;;;;;;;5092427;28;20031;-55
2021/07/24 10:45:32;;;;;;;22.45;9.55;;;;;;;;;;5093070;28;20078;-54
2021/07/24 10:48:19;;;;;;;24.90;9.90;;;;;;;;;;5092981;28;20512;-55
2021/07/24 10:50:54;;;;;;;19.30;9.82;;;;;;;;;;5092278;28;20450;-55
2021/07/24 10:53:24;;;;;;;22.25;9.30;;;;;;;;;;5093243;28;20051;-55
2021/07/24 10:55:51;;;;;;;24.20;9.82;;;;;;;;;;5092747;28;20055;-55
2021/07/24 10:58:18;;;;;;;19.67;9.50;;;;;;;;;;5092856;28;20426;-54
2021/07/24 11:00:52;;;;;;;25.45;10.15;;;;;;;;;;5092449;28;20024;-54
2021/07/24 11:03:33;;;;;;;21.23;9.80;;;;;;;;;;5092626;28;20439;-55
2021/07/24 11:06:21;;;;;;;25.25;11.20;;;;;;;;;;5092878;28;20137;-55
2021/07/24 11:09:02;;;;;;;28.02;10.95;;;;;;;;;;5093360;28;20024;-54
2021/07/24 11:11:47;;;;;;;21.90;10.30;;;;;;;;;;5092017;28;20032;-54
2021/07/24 11:14:31;;;;;;;42.45;10.18;;;;;;;;;;5093007;28;20070;-54
2021/07/24 11:17:07;;;;;;;19.58;9.32;;;;;;;;;;5094786;28;20023;-54
2021/07/24 11:19:34;;;;;;;19.65;9.23;;;;;;;;;;5096932;28;20476;-54
2021/07/24 11:22:12;;;;;;;32.90;10.00;;;;;;;;;;5095774;28;20036;-56
2021/07/24 11:24:38;;;;;;;20.63;8.63;;;;;;;;;;5096701;28;20024;-54
2021/07/24 11:27:04;;;;;;;21.73;8.30;;;;;;;;;;5096718;28;20030;-55
2021/07/24 11:29:30;;;;;;;29.77;9.10;;;;;;;;;;5096853;28;20031;-53
2021/07/24 11:31:59;;;;;;;23.85;7.90;;;;;;;;;;5095969;28;20104;-53
2021/07/24 11:34:26;;;;;;;14.37;6.23;;;;;;;;;;5096760;28;20016;-52
2021/07/24 11:36:52;;;;;;;7.57;4.80;;;;;;;;;;5094724;28;20068;-52
2021/07/24 11:39:25;;;;;;;10.68;4.88;;;;;;;;;;5084682;28;20087;-52
2021/07/24 11:41:51;;;;;;;11.80;4.65;;;;;;;;;;5094953;28;20024;-53
2021/07/24 11:44:27;;;;;;;10.25;4.70;;;;;;;;;;5083131;28;20626;-52
2021/07/24 11:46:59;;;;;;;9.60;5.13;;;;;;;;;;5076110;28;20024;-52
2021/07/24 11:49:26;;;;;;;12.48;5.22;;;;;;;;;;5075517;28;20400;-53
2021/07/24 11:51:52;;;;;;;18.92;5.63;;;;;;;;;;5075271;28;20040;-52
2021/07/24 11:54:31;;;;;;;12.68;5.32;;;;;;;;;;5080241;28;20103;-52
2021/07/24 11:56:57;;;;;;;12.10;5.25;;;;;;;;;;5096066;28;20034;-52
2021/07/24 11:59:24;;;;;;;10.85;5.35;;;;;;;;;;5095956;28;20099;-52
2021/07/24 12:01:50;;;;;;;12.73;5.93;;;;;;;;;;5095502;28;20058;-53
2021/07/24 12:04:17;;;;;;;14.50;5.95;;;;;;;;;;5086190;28;20028;-52
2021/07/24 12:06:50;;;;;;;12.35;6.50;;;;;;;;;;5072890;28;20025;-52
2021/07/24 12:09:17;;;;;;;10.05;5.60;;;;;;;;;;5074206;28;20103;-52
2021/07/24 12:11:54;;;;;;;11.75;6.05;;;;;;;;;;5073010;28;20037;-52
2021/07/24 12:14:21;;;;;;;11.88;6.25;;;;;;;;;;5073766;28;20024;-52
2021/07/24 12:16:47;;;;;;;15.30;5.75;;;;;;;;;;5074039;28;20028;-53
2021/07/24 12:19:20;;;;;;;13.25;5.82;;;;;;;;;;5072825;28;20025;-52
2021/07/24 12:21:46;;;;;;;12.15;6.10;;;;;;;;;;5074129;28;20063;-53
2021/07/24 12:24:22;;;;;;;11.43;5.38;;;;;;;;;;5076013;28;20036;-52
2021/07/24 12:26:48;;;;;;;16.52;6.15;;;;;;;;;;5075276;28;20073;-52
2021/07/24 12:29:14;;;;;;;15.35;7.05;;;;;;;;;;5075349;28;20112;-52
2021/07/24 12:31:44;;;;;;;20.40;7.20;;;;;;;;;;5074090;28;20034;-52
2021/07/24 12:34:17;;;;;;;31.58;10.93;;;;;;;;;;5075485;28;20453;-52
2021/07/24 12:36:57;;;;;;;12.07;6.85;;;;;;;;;;5075166;28;20033;-52
2021/07/24 12:39:24;;;;;;;12.55;6.90;;;;;;;;;;5075527;28;20025;-52
2021/07/24 12:41:59;;;;;;;12.30;5.18;;;;;;;;;;5074420;28;20025;-52
2021/07/24 12:44:26;;;;;;;13.95;6.20;;;;;;;;;;5074900;28;20033;-52
2021/07/24 12:47:11;;;;;;;8.98;5.28;;;;;;;;;;5075141;28;20027;-52
2021/07/24 12:49:38;;;;;;;13.55;6.05;;;;;;;;;;5074769;28;20477;-52
2021/07/24 12:52:23;;;;;;;11.43;5.22;;;;;;;;;;5074130;28;20134;-52
2021/07/24 12:55:04;;;;;;;12.52;6.30;;;;;;;;;;5074682;28;20024;-52
2021/07/24 12:57:31;;;;;;;11.43;6.03;;;;;;;;;;5075054;28;20074;-52
2021/07/24 12:59:57;;;;;;;10.23;5.35;;;;;;;;;;5093851;28;20028;-52
2021/07/24 13:02:26;;;;;;;13.65;5.97;;;;;;;;;;5094287;28;20047;-53
2021/07/24 13:04:52;;;;;;;12.05;5.57;;;;;;;;;;5094705;28;20509;-53
2021/07/24 13:07:25;;;;;;;13.60;6.03;;;;;;;;;;5094189;28;20031;-52
2021/07/24 13:09:51;;;;;;;10.73;5.25;;;;;;;;;;5082049;28;20036;-52
2021/07/24 13:12:17;;;;;;;10.90;5.07;;;;;;;;;;5073968;28;20028;-52
2021/07/24 13:14:43;;;;;;;11.55;4.88;;;;;;;;;;5074576;28;20353;-52
2021/07/24 13:17:09;;;;;;;14.75;4.72;;;;;;;;;;5074369;28;20021;-52
2021/07/24 13:19:35;;;;;;;7.55;4.65;;;;;;;;;;5074432;28;20426;-52
2021/07/24 13:22:02;;;;;;;7.68;4.75;;;;;;;;;;5072868;28;20129;-52
2021/07/24 13:24:30;;;;;;;10.52;4.15;;;;;;;;;;5074315;28;20425;-52
2021/07/24 13:29:41;;;;;;;9.25;4.28;;;;;;;;;;5074619;28;20030;-52
2021/07/24 13:32:07;;;;;;;9.88;4.45;;;;;;;;;;5071688;28;20158;-52
2021/07/24 13:34:33;;;;;;;8.55;3.90;;;;;;;;;;5074196;28;20067;-52
2021/07/24 13:36:59;;;;;;;7.72;3.78;;;;;;;;;;5074049;28;20074;-52
2021/07/24 13:39:25;;;;;;;7.68;3.78;;;;;;;;;;5082575;28;20029;-52
2021/07/24 13:41:51;;;;;;;8.30;3.50;;;;;;;;;;5076944;28;20017;-52
2021/07/24 13:44:17;;;;;;;14.90;3.75;;;;;;;;;;5073716;28;20036;-52
2021/07/24 13:46:43;;;;;;;9.68;4.60;;;;;;;;;;5073603;28;20366;-52
2021/07/24 13:49:09;;;;;;;7.63;3.90;;;;;;;;;;5074181;28;20024;-53
2021/07/24 13:51:35;;;;;;;13.02;4.28;;;;;;;;;;5072755;28;20063;-52
2021/07/24 13:54:01;;;;;;;9.00;3.63;;;;;;;;;;5073437;28;20025;-52
2021/07/24 13:56:27;;;;;;;7.80;4.07;;;;;;;;;;5073755;28;20031;-52
2021/07/24 13:58:53;;;;;;;8.02;3.95;;;;;;;;;;5073445;28;20024;-51
2021/07/24 14:01:19;;;;;;;9.23;4.20;;;;;;;;;;5072960;28;20025;-52
2021/07/24 14:03:46;;;;;;;11.13;4.18;;;;;;;;;;5073283;28;20029;-52
2021/07/24 14:06:12;;;;;;;6.47;3.70;;;;;;;;;;5073224;28;20031;-52
2021/07/24 14:08:38;;;;;;;8.35;3.88;;;;;;;;;;5072908;28;20112;-52
2021/07/24 14:11:20;;;;;;;11.68;4.28;;;;;;;;;;5072736;28;20460;-52
2021/07/24 14:13:46;;;;;;;7.15;3.53;;;;;;;;;;5073060;28;20032;-52
2021/07/24 14:16:13;;;;;;;9.02;4.32;;;;;;;;;;5073411;28;20020;-52
2021/07/24 14:18:39;;;;;;;8.27;4.70;;;;;;;;;;5073242;28;20457;-51
2021/07/24 14:21:05;;;;;;;11.95;4.75;;;;;;;;;;5072150;28;20041;-51
2021/07/24 14:23:31;;;;;;;8.90;4.53;;;;;;;;;;5073195;28;20025;-51
2021/07/24 14:26:03;;;;;;;8.65;4.05;;;;;;;;;;5073104;28;20370;-52
2021/07/24 14:28:29;;;;;;;11.18;4.65;;;;;;;;;;5073083;28;20039;-51
2021/07/24 14:30:55;;;;;;;11.27;4.72;;;;;;;;;;5080370;28;20113;-52
2021/07/24 14:33:21;;;;;;;8.07;4.20;;;;;;;;;;5093591;28;20391;-52
2021/07/24 14:35:47;;;;;;;7.82;4.78;;;;;;;;;;5092919;28;20506;-52
2021/07/24 14:38:13;;;;;;;15.40;4.82;;;;;;;;;;5093169;28;20024;-52
2021/07/24 14:40:39;;;;;;;7.85;4.13;;;;;;;;;;5092400;28;20020;-52